aviador You're here:

LEAL Decoded Metar

ALICANTE in SPAIN
Report Time2018-06-17 23:00:00
UTC Time2018-06-17 23:30:57
Flight Rules vfr VFR
WindVRB at 02 kt
Visibility9999 m
Phenomena:N/A
Clouds:N/A
Expected CloudBase > 1,600 ft AGL from Temp-Dew spread
CeilingNone
Temp22°C (ISA +7)
Dew Point18°C (78% RH)
QNH1020 hPa
Density Alt978 ft
Elevation102 ft
Report Wrong Elevation
Raw Report
METAR LEAL 172300Z VRB02KT CAVOK 22/18 Q1020 NOSIG=

Extra information for LEAL:More info

Metar Taf Metar & Taf Last 4 Metars F.Rules Stats Wind Profile Meteogram Temp Stats Airport Information Weather charts Add Link Nearby VenuesMetar ALERT Operation Metar Decoded Social comments